createdAt,value
2019-02-15T00:01:45.022Z,76.86
2019-02-15T00:04:21.404Z,77.04
2019-02-15T00:06:57.357Z,78.00
2019-02-15T00:09:35.677Z,78.56
2019-02-15T00:12:10.178Z,78.56
2019-02-15T00:15:04.276Z,78.15
2019-02-15T00:18:13.750Z,78.35
2019-02-15T00:21:03.073Z,77.59
2019-02-15T00:23:39.942Z,77.70
2019-02-15T00:26:20.430Z,77.58
2019-02-15T00:28:53.994Z,77.64
2019-02-15T00:31:30.380Z,77.67
2019-02-15T00:34:07.162Z,77.65
2019-02-15T00:36:45.532Z,78.28
2019-02-15T00:39:20.162Z,78.82
2019-02-15T00:41:50.627Z,79.17
2019-02-15T00:44:27.049Z,78.76
2019-02-15T00:47:17.799Z,79.29
2019-02-15T00:50:25.616Z,78.45
2019-02-15T00:56:16.035Z,78.80
2019-02-15T00:59:04.782Z,78.58
2019-02-15T01:01:56.727Z,78.66
2019-02-15T01:04:38.223Z,79.07
2019-02-15T01:07:48.579Z,79.24
2019-02-15T01:10:42.981Z,78.46
2019-02-15T01:13:31.166Z,78.20
2019-02-15T01:15:59.567Z,78.55
2019-02-15T01:18:38.009Z,79.40
2019-02-15T01:21:09.803Z,79.99
2019-02-15T01:23:46.343Z,80.44
2019-02-15T01:26:38.097Z,79.34
2019-02-15T01:29:29.773Z,79.68
2019-02-15T01:32:40.701Z,80.44
2019-02-15T01:35:26.475Z,80.01
2019-02-15T01:38:20.348Z,79.86
2019-02-15T01:41:07.627Z,79.46
2019-02-15T01:49:35.164Z,79.60
2019-02-15T01:52:05.703Z,80.08
2019-02-15T01:54:42.275Z,80.27
2019-02-15T01:57:24.283Z,80.38
2019-02-15T01:59:58.573Z,80.09
2019-02-15T02:02:36.191Z,80.38
2019-02-15T02:05:07.449Z,80.23
2019-02-15T02:07:44.823Z,79.52
2019-02-15T02:10:23.768Z,79.33
2019-02-15T02:12:56.424Z,79.28
2019-02-15T02:15:28.603Z,79.39
2019-02-15T02:18:02.705Z,79.85
2019-02-15T02:20:38.012Z,79.80
2019-02-15T02:23:07.983Z,79.92
2019-02-15T02:25:47.021Z,79.71
2019-02-15T02:28:24.457Z,80.07
2019-02-15T02:33:37.853Z,79.30
2019-02-15T02:36:17.861Z,79.52
2019-02-15T02:38:50.456Z,80.38
2019-02-15T02:41:29.929Z,80.05
2019-02-15T02:44:06.007Z,79.65
2019-02-15T02:46:42.892Z,80.25
2019-02-15T02:49:18.704Z,81.22
2019-02-15T02:51:50.579Z,81.64
2019-02-15T02:54:24.742Z,81.04
2019-02-15T02:56:58.574Z,81.39
2019-02-15T03:02:11.421Z,82.11
2019-02-15T03:04:45.549Z,81.90
2019-02-15T03:07:17.490Z,81.64
2019-02-15T03:09:55.438Z,81.61
2019-02-15T03:12:30.837Z,81.53
2019-02-15T03:17:45.135Z,81.69
2019-02-15T03:20:31.318Z,81.58
2019-02-15T03:23:00.249Z,80.77
2019-02-15T03:25:33.850Z,80.92
2019-02-15T03:28:06.160Z,80.56
2019-02-15T03:33:25.003Z,80.37
2019-02-15T03:36:02.817Z,80.16
2019-02-15T03:38:51.192Z,81.42
2019-02-15T03:41:33.125Z,80.93
2019-02-15T03:44:07.764Z,81.21
2019-02-15T03:46:43.624Z,81.80
2019-02-15T03:49:15.378Z,82.18
2019-02-15T03:51:50.218Z,81.59
2019-02-15T03:54:30.283Z,81.70
2019-02-15T03:57:03.268Z,82.42
2019-02-15T03:59:36.434Z,83.04
2019-02-15T04:02:16.708Z,82.91
2019-02-15T04:04:48.740Z,82.79
2019-02-15T04:07:23.906Z,82.24
2019-02-15T04:09:55.537Z,82.54
2019-02-15T04:12:27.038Z,82.85
2019-02-15T04:15:03.626Z,82.55
2019-02-15T04:17:34.704Z,82.90
2019-02-15T04:20:07.834Z,83.55
2019-02-15T04:22:41.432Z,83.06
2019-02-15T04:25:16.456Z,83.00
2019-02-15T04:27:52.472Z,82.35
2019-02-15T04:30:25.354Z,82.20
2019-02-15T04:33:05.025Z,82.75
2019-02-15T04:35:40.608Z,83.03
2019-02-15T04:38:14.714Z,83.16
2019-02-15T04:40:48.756Z,83.10
2019-02-15T04:43:24.595Z,83.33
2019-02-15T04:45:56.742Z,83.37
2019-02-15T04:48:29.852Z,83.32
2019-02-15T04:51:06.254Z,83.03
2019-02-15T04:53:39.598Z,83.47
2019-02-15T04:56:15.461Z,83.24
2019-02-15T04:58:53.055Z,83.69
2019-02-15T05:01:28.005Z,83.88
2019-02-15T05:04:07.141Z,84.37
2019-02-15T05:06:40.623Z,83.88
2019-02-15T05:09:16.470Z,83.07
2019-02-15T05:11:50.413Z,83.41
2019-02-15T05:14:23.357Z,82.76
2019-02-15T05:16:57.908Z,82.01
2019-02-15T05:19:31.024Z,81.85
2019-02-15T05:22:03.687Z,81.95
2019-02-15T05:24:33.821Z,82.41
2019-02-15T05:27:05.219Z,81.99
2019-02-15T05:29:35.756Z,82.17
2019-02-15T05:32:08.861Z,82.38
2019-02-15T05:34:47.065Z,81.74
2019-02-15T05:37:18.283Z,82.03
2019-02-15T05:39:50.456Z,82.52
2019-02-15T05:42:25.594Z,82.84
2019-02-15T05:45:03.926Z,82.70
2019-02-15T05:47:33.762Z,82.35
2019-02-15T05:50:11.569Z,83.20
2019-02-15T05:52:50.408Z,83.92
2019-02-15T05:55:21.002Z,84.21
2019-02-15T06:00:40.414Z,84.26
2019-02-15T06:03:18.630Z,83.90
2019-02-15T06:06:00.020Z,84.27
2019-02-15T06:08:37.301Z,84.46
2019-02-15T06:13:47.087Z,83.91
2019-02-15T06:16:21.589Z,84.13
2019-02-15T06:18:57.039Z,84.44
2019-02-15T06:21:31.560Z,84.51
2019-02-15T06:24:06.103Z,83.75
2019-02-15T06:26:40.094Z,83.43
2019-02-15T06:29:15.830Z,84.12
2019-02-15T06:31:53.694Z,83.59
2019-02-15T06:34:28.111Z,83.64
2019-02-15T06:37:00.441Z,83.31
2019-02-15T06:39:35.915Z,83.91
2019-02-15T06:42:18.335Z,83.55
2019-02-15T06:44:54.889Z,84.08
2019-02-15T06:47:37.090Z,84.51
2019-02-15T06:50:09.283Z,84.04
2019-02-15T06:52:46.138Z,83.95
2019-02-15T06:55:20.444Z,84.30
2019-02-15T06:57:59.392Z,84.45
2019-02-15T07:00:57.060Z,84.67
2019-02-15T07:03:53.594Z,84.01
2019-02-15T07:06:30.770Z,84.45
2019-02-15T07:09:07.554Z,84.22
2019-02-15T07:11:46.484Z,84.60
2019-02-15T07:14:39.751Z,84.31
2019-02-15T07:17:30.818Z,84.37
2019-02-15T07:20:08.504Z,84.35
2019-02-15T07:23:01.083Z,84.73
2019-02-15T07:25:34.118Z,85.03
2019-02-15T07:28:16.615Z,85.42
2019-02-15T07:30:59.574Z,86.11
2019-02-15T07:33:44.482Z,86.24
2019-02-15T07:36:19.031Z,86.53
2019-02-15T07:38:50.656Z,86.45
2019-02-15T07:41:29.085Z,86.72
2019-02-15T07:44:05.776Z,86.50
2019-02-15T07:46:40.707Z,86.09
2019-02-15T07:49:12.863Z,85.77
2019-02-15T07:54:30.632Z,86.24
2019-02-15T07:57:09.885Z,85.97
2019-02-15T07:59:41.099Z,85.26
2019-02-15T08:04:55.701Z,86.58
2019-02-15T08:07:29.790Z,86.56
2019-02-15T08:10:01.641Z,86.80
2019-02-15T08:12:37.224Z,87.06
2019-02-15T08:15:10.198Z,87.49
2019-02-15T08:17:45.752Z,86.06
2019-02-15T08:20:19.122Z,87.30
2019-02-15T08:22:56.957Z,87.19
2019-02-15T08:25:32.083Z,87.80
2019-02-15T08:28:12.963Z,87.72
2019-02-15T08:30:49.239Z,85.93
2019-02-15T08:35:57.673Z,85.81
2019-02-15T08:38:38.567Z,86.10
2019-02-15T08:41:14.705Z,85.23
2019-02-15T08:43:47.096Z,86.07
2019-02-15T08:46:24.159Z,86.01
2019-02-15T08:48:59.939Z,86.48
2019-02-15T08:51:32.825Z,85.96
2019-02-15T08:54:08.867Z,85.06
2019-02-15T08:56:41.517Z,85.53
2019-02-15T08:59:15.863Z,85.32
2019-02-15T09:02:00.844Z,85.43
2019-02-15T09:04:34.645Z,84.33
2019-02-15T09:07:06.715Z,85.37
2019-02-15T09:09:38.972Z,84.84
2019-02-15T09:12:09.771Z,85.34
2019-02-15T09:14:44.602Z,84.28
2019-02-15T09:17:15.362Z,85.14
2019-02-15T09:22:28.005Z,85.24
2019-02-15T09:25:07.668Z,85.44
2019-02-15T09:28:14.839Z,84.79
2019-02-15T09:30:56.339Z,86.26
2019-02-15T09:33:29.605Z,87.36
2019-02-15T09:36:04.758Z,87.44
2019-02-15T09:38:37.949Z,88.38
2019-02-15T09:41:25.597Z,89.01
2019-02-15T09:43:57.451Z,88.01
2019-02-15T09:46:36.600Z,88.59
2019-02-15T09:49:09.174Z,89.29
2019-02-15T09:51:42.961Z,88.80
2019-02-15T09:54:14.633Z,88.24
2019-02-15T09:56:48.785Z,88.84
2019-02-15T10:01:59.741Z,87.98
2019-02-15T10:04:31.820Z,87.25
2019-02-15T10:07:04.590Z,86.91
2019-02-15T10:09:41.099Z,87.15
2019-02-15T10:12:11.822Z,85.91
2019-02-15T10:14:45.799Z,85.65
2019-02-15T10:17:17.976Z,84.99
2019-02-15T10:19:50.246Z,85.32
2019-02-15T10:22:21.165Z,85.08
2019-02-15T10:24:55.335Z,85.57
2019-02-15T10:27:27.061Z,84.64
2019-02-15T10:30:04.971Z,84.52
2019-02-15T10:32:38.538Z,83.56
2019-02-15T10:35:09.251Z,83.44
2019-02-15T10:37:42.886Z,82.98
2019-02-15T10:40:15.479Z,81.54
2019-02-15T10:42:47.964Z,81.86
2019-02-15T10:45:20.841Z,81.11
2019-02-15T10:47:55.896Z,80.59
2019-02-15T10:50:28.499Z,80.41
2019-02-15T10:53:03.848Z,80.50
2019-02-15T10:55:33.792Z,79.23
2019-02-15T10:58:04.492Z,79.81
2019-02-15T11:00:37.754Z,79.47
2019-02-15T11:03:10.484Z,79.96
2019-02-15T11:05:42.318Z,79.15
2019-02-15T11:08:16.674Z,79.89
2019-02-15T11:10:48.077Z,79.79
2019-02-15T11:13:20.745Z,79.47
2019-02-15T11:15:51.170Z,78.81
2019-02-15T11:18:24.171Z,80.12
2019-02-15T11:20:56.128Z,78.54
2019-02-15T11:23:28.613Z,77.27
2019-02-15T11:26:04.598Z,76.51
2019-02-15T11:28:36.398Z,76.31
2019-02-15T11:31:09.512Z,75.82
2019-02-15T11:33:39.879Z,73.92
2019-02-15T11:36:11.188Z,74.17
2019-02-15T11:38:48.957Z,74.68
2019-02-15T11:41:20.860Z,75.66
2019-02-15T11:43:54.642Z,75.96
2019-02-15T11:46:29.906Z,77.10
2019-02-15T11:49:05.344Z,77.68
2019-02-15T11:51:40.414Z,76.44
2019-02-15T11:54:12.350Z,76.08
2019-02-15T11:56:44.594Z,75.20
2019-02-15T11:59:16.883Z,77.24
2019-02-15T12:01:51.613Z,76.83
2019-02-15T12:04:24.488Z,76.21
2019-02-15T12:06:57.294Z,74.02
2019-02-15T12:09:31.616Z,73.62
2019-02-15T12:12:10.361Z,74.50
2019-02-15T12:14:36.537Z,72.78
2019-02-15T12:17:07.802Z,74.13
2019-02-15T12:19:38.069Z,72.84
2019-02-15T12:22:14.405Z,72.66
2019-02-15T12:24:45.881Z,72.01
2019-02-15T12:27:18.470Z,69.40
2019-02-15T12:29:51.094Z,71.03
2019-02-15T12:32:36.798Z,73.24
2019-02-15T12:35:08.292Z,69.86
2019-02-15T12:37:40.205Z,66.57
2019-02-15T12:40:10.410Z,70.90
2019-02-15T12:42:47.836Z,72.28
2019-02-15T12:45:17.987Z,69.59
2019-02-15T12:47:50.322Z,69.85
2019-02-15T12:50:22.261Z,67.78
2019-02-15T12:52:54.575Z,70.58
2019-02-15T12:55:25.275Z,72.21
2019-02-15T12:57:57.180Z,67.65
2019-02-15T13:00:27.713Z,65.96
2019-02-15T13:03:00.569Z,65.57
2019-02-15T13:05:33.339Z,69.97
2019-02-15T13:08:05.323Z,67.92
2019-02-15T13:10:40.367Z,66.10
2019-02-15T13:13:10.386Z,69.23
2019-02-15T13:15:46.653Z,70.49
2019-02-15T13:18:23.626Z,69.95
2019-02-15T13:20:58.043Z,69.96
2019-02-15T13:23:30.431Z,67.44
2019-02-15T13:26:09.413Z,64.73
2019-02-15T13:28:45.623Z,65.22
2019-02-15T13:31:18.892Z,66.22
2019-02-15T13:33:49.965Z,69.25
2019-02-15T13:36:21.833Z,66.62
2019-02-15T13:38:55.631Z,65.60
2019-02-15T13:41:30.052Z,65.49
2019-02-15T13:44:06.386Z,63.59
2019-02-15T13:46:37.350Z,64.37
2019-02-15T13:49:09.828Z,65.56
2019-02-15T13:51:41.173Z,64.22
2019-02-15T13:54:14.921Z,63.47
2019-02-15T13:56:45.401Z,64.04
2019-02-15T13:59:20.733Z,63.08
2019-02-15T14:01:51.992Z,59.41
2019-02-15T14:04:27.766Z,62.67
2019-02-15T14:07:00.046Z,60.83
2019-02-15T14:09:36.602Z,59.92
2019-02-15T14:12:06.213Z,61.82
2019-02-15T14:14:40.846Z,63.73
2019-02-15T14:17:12.410Z,61.42
2019-02-15T14:19:48.264Z,64.07
2019-02-15T14:22:20.128Z,66.01
2019-02-15T14:24:55.247Z,65.36
2019-02-15T14:27:28.731Z,65.01
2019-02-15T14:30:04.308Z,63.87
2019-02-15T14:32:37.603Z,65.88
2019-02-15T14:35:13.232Z,64.89
2019-02-15T14:37:44.798Z,64.10
2019-02-15T14:40:23.025Z,64.98
2019-02-15T14:42:57.969Z,64.40
2019-02-15T14:45:33.082Z,65.88
2019-02-15T14:48:08.222Z,67.49
2019-02-15T14:50:43.277Z,68.13
2019-02-15T14:53:16.329Z,67.07
2019-02-15T14:55:54.662Z,65.64
2019-02-15T14:58:26.413Z,65.56
2019-02-15T15:01:00.146Z,67.29
2019-02-15T15:03:34.555Z,66.72
2019-02-15T15:06:10.240Z,69.08
2019-02-15T15:08:45.893Z,67.31
2019-02-15T15:11:20.694Z,67.14
2019-02-15T15:13:55.831Z,67.91
2019-02-15T15:16:37.709Z,68.08
2019-02-15T15:19:15.718Z,68.33
2019-02-15T15:24:28.358Z,67.83
2019-02-15T15:27:00.034Z,68.25
2019-02-15T15:29:39.360Z,68.91
2019-02-15T15:32:14.390Z,66.95
2019-02-15T15:34:55.472Z,65.75
2019-02-15T15:37:25.464Z,67.43
2019-02-15T15:39:58.812Z,65.54
2019-02-15T15:42:34.168Z,65.81
2019-02-15T15:45:14.776Z,65.94
2019-02-15T15:47:50.580Z,66.54
2019-02-15T15:50:28.676Z,68.10
2019-02-15T15:52:59.907Z,66.99
2019-02-15T15:55:31.641Z,66.75
2019-02-15T15:58:06.821Z,65.82
2019-02-15T16:00:39.419Z,66.21
2019-02-15T16:03:13.670Z,67.65
2019-02-15T16:05:44.622Z,67.81
2019-02-15T16:08:23.466Z,67.65
2019-02-15T16:10:55.718Z,67.97
2019-02-15T16:13:30.434Z,68.50
2019-02-15T16:16:00.990Z,68.42
2019-02-15T16:18:35.117Z,68.41
2019-02-15T16:21:08.525Z,69.50
2019-02-15T16:23:43.444Z,69.83
2019-02-15T16:26:15.492Z,68.38
2019-02-15T16:28:50.733Z,69.06
2019-02-15T16:31:21.050Z,69.54
2019-02-15T16:33:55.191Z,69.40
2019-02-15T16:36:27.865Z,70.38
2019-02-15T16:39:04.657Z,70.21
2019-02-15T16:41:36.449Z,69.86
2019-02-15T16:44:09.742Z,68.88
2019-02-15T16:46:39.946Z,70.22
2019-02-15T16:49:13.945Z,69.86
2019-02-15T16:51:45.314Z,70.54
2019-02-15T16:54:19.856Z,70.15
2019-02-15T16:56:50.774Z,70.78
2019-02-15T16:59:28.776Z,70.38
2019-02-15T17:02:02.274Z,70.99
2019-02-15T17:04:37.818Z,71.39
2019-02-15T17:07:15.029Z,72.26
2019-02-15T17:09:46.790Z,72.59
2019-02-15T17:12:25.280Z,73.07
2019-02-15T17:14:56.724Z,72.79
2019-02-15T17:17:34.744Z,72.42
2019-02-15T17:20:05.040Z,72.25
2019-02-15T17:22:38.939Z,72.27
2019-02-15T17:25:09.550Z,72.38
2019-02-15T17:27:45.610Z,72.33
2019-02-15T17:33:03.731Z,71.87
2019-02-15T17:35:39.784Z,72.00
2019-02-15T17:38:17.379Z,72.22
2019-02-15T17:40:54.685Z,71.98
2019-02-15T17:43:31.703Z,71.97
2019-02-15T17:46:04.607Z,71.85
2019-02-15T17:48:36.668Z,72.10
2019-02-15T17:51:13.684Z,72.17
2019-02-15T17:53:49.088Z,72.56
2019-02-15T17:56:25.448Z,73.21
2019-02-15T17:58:58.938Z,74.14
2019-02-15T18:01:32.111Z,74.60
2019-02-15T18:04:02.416Z,74.02
2019-02-15T18:06:37.380Z,73.99
2019-02-15T18:09:09.105Z,73.87
2019-02-15T18:11:43.428Z,74.01
2019-02-15T18:14:16.114Z,74.29
2019-02-15T18:16:54.472Z,74.32
2019-02-15T18:19:34.275Z,74.19
2019-02-15T18:22:13.621Z,74.12
2019-02-15T18:24:48.369Z,74.35
2019-02-15T18:29:59.219Z,74.05
2019-02-15T18:32:33.807Z,74.08
2019-02-15T18:35:08.025Z,74.41
2019-02-15T18:37:41.157Z,74.51
2019-02-15T18:40:18.863Z,74.62
2019-02-15T18:42:51.219Z,74.94
2019-02-15T18:45:24.425Z,74.78
2019-02-15T18:47:59.365Z,74.90
2019-02-15T18:50:37.484Z,74.70
2019-02-15T18:53:17.748Z,74.88
2019-02-15T18:55:50.263Z,75.37
2019-02-15T18:58:21.265Z,75.87
2019-02-15T19:00:57.843Z,76.03
2019-02-15T19:03:35.531Z,75.80
2019-02-15T19:06:05.546Z,75.64
2019-02-15T19:08:37.771Z,76.01
2019-02-15T19:11:15.303Z,76.34
2019-02-15T19:13:49.320Z,76.44
2019-02-15T19:16:19.993Z,76.49
2019-02-15T19:18:55.701Z,76.24
2019-02-15T19:21:27.495Z,76.22
2019-02-15T19:23:59.743Z,76.74
2019-02-15T19:26:31.964Z,76.42
2019-02-15T19:31:44.783Z,76.07
2019-02-15T19:34:23.529Z,76.73
2019-02-15T19:36:59.795Z,75.97
2019-02-15T19:39:30.301Z,75.98
2019-02-15T19:42:14.607Z,76.02
2019-02-15T19:44:46.216Z,76.17
2019-02-15T19:47:23.461Z,76.22
2019-02-15T19:49:58.443Z,76.17
2019-02-15T19:52:30.675Z,76.63
2019-02-15T19:55:07.013Z,75.94
2019-02-15T19:57:37.983Z,76.26
2019-02-15T20:00:19.063Z,76.07
2019-02-15T20:02:49.738Z,76.46
2019-02-15T20:05:24.999Z,76.11
2019-02-15T20:08:00.873Z,76.26
2019-02-15T20:10:34.733Z,76.55
2019-02-15T20:13:05.734Z,76.43
2019-02-15T20:15:40.357Z,76.53
2019-02-15T20:18:14.519Z,76.34
2019-02-15T20:20:45.416Z,76.51
2019-02-15T20:23:18.293Z,76.50
2019-02-15T20:25:49.802Z,76.48
2019-02-15T20:28:27.014Z,76.41
2019-02-15T20:30:56.998Z,75.82
2019-02-15T20:33:33.249Z,75.95
2019-02-15T20:36:04.416Z,75.89
2019-02-15T20:38:40.750Z,75.87
2019-02-15T20:41:14.003Z,76.82
2019-02-15T20:43:47.223Z,76.21
2019-02-15T20:46:23.298Z,76.19
2019-02-15T20:49:04.322Z,76.70
2019-02-15T20:51:28.632Z,76.46
2019-02-15T20:54:04.203Z,76.74
2019-02-15T20:56:36.533Z,76.77
2019-02-15T21:01:44.199Z,76.47
2019-02-15T21:04:15.330Z,76.07
2019-02-15T21:06:45.321Z,76.24
2019-02-15T21:09:15.374Z,76.48
2019-02-15T21:11:45.472Z,76.38
2019-02-15T21:14:15.515Z,76.34
2019-02-15T21:16:50.149Z,76.48
2019-02-15T21:19:20.184Z,76.64
2019-02-15T21:21:53.652Z,76.39
2019-02-15T21:24:24.521Z,76.25
2019-02-15T21:26:55.642Z,76.54
2019-02-15T21:29:26.562Z,77.02
2019-02-15T21:31:58.776Z,77.13
2019-02-15T21:34:30.211Z,76.58
2019-02-15T21:37:03.311Z,76.54
2019-02-15T21:39:38.154Z,76.81
2019-02-15T21:42:10.712Z,77.01
2019-02-15T21:44:41.744Z,76.59
2019-02-15T21:47:16.167Z,76.70
2019-02-15T21:49:48.741Z,76.70
2019-02-15T21:52:21.089Z,77.08
2019-02-15T21:54:57.152Z,76.99
2019-02-15T21:57:29.723Z,77.29
2019-02-15T22:00:01.130Z,77.50
2019-02-15T22:02:34.511Z,77.20
2019-02-15T22:05:04.608Z,77.47
2019-02-15T22:07:40.324Z,78.14
2019-02-15T22:10:15.280Z,77.36
2019-02-15T22:12:49.753Z,77.24
2019-02-15T22:15:27.456Z,77.28
2019-02-15T22:17:58.215Z,77.24
2019-02-15T22:20:35.363Z,76.86
2019-02-15T22:23:09.511Z,77.48
2019-02-15T22:25:48.091Z,77.50
2019-02-15T22:28:22.292Z,77.50
2019-02-15T22:30:56.937Z,77.48
2019-02-15T22:33:29.630Z,77.22
2019-02-15T22:36:04.644Z,77.21
2019-02-15T22:38:38.226Z,77.26
2019-02-15T22:41:16.972Z,77.23
2019-02-15T22:43:48.833Z,76.99
2019-02-15T22:46:23.088Z,77.07
2019-02-15T22:48:57.790Z,77.02
2019-02-15T22:51:29.856Z,77.35
2019-02-15T22:54:02.678Z,77.24
2019-02-15T22:56:37.286Z,77.68
2019-02-15T22:59:09.021Z,77.46
2019-02-15T23:01:40.179Z,77.25
2019-02-15T23:04:17.782Z,77.52
2019-02-15T23:06:49.102Z,77.15
2019-02-15T23:09:28.247Z,77.67
2019-02-15T23:12:02.563Z,77.99
2019-02-15T23:14:37.904Z,78.60
2019-02-15T23:17:13.220Z,78.45
2019-02-15T23:19:45.122Z,79.25
2019-02-15T23:22:17.689Z,79.85
2019-02-15T23:24:47.893Z,79.85
2019-02-15T23:27:20.907Z,78.82
2019-02-15T23:29:54.084Z,79.86
2019-02-15T23:32:30.557Z,79.35
2019-02-15T23:35:02.647Z,79.10
2019-02-15T23:37:36.124Z,78.51
2019-02-15T23:40:09.734Z,78.44
2019-02-15T23:42:48.350Z,78.44
2019-02-15T23:45:19.005Z,78.26
2019-02-15T23:47:57.072Z,78.58
2019-02-15T23:50:28.460Z,78.51
2019-02-15T23:52:59.836Z,78.58
2019-02-15T23:55:31.754Z,78.35
2019-02-15T23:58:04.960Z,78.26
